Time;durP1;ratioP1;P1;durP2;ratioP2;P2;SDS_P1;SDS_P2;PMS_P1;PMS_P2;Temp;Humidity;BMP_temperature;BMP_pressure;BME280_temperature;BME280_humidity;BME280_pressure;Samples;Min_cycle;Max_cycle;Signal;HPM_P1;HPM_P2
2023/10/04 00:01:37;;;;;;;14.38;8.30;;;;;;;10.49;100.00;93782.88;5069901;28;20142;-73
2023/10/04 00:04:04;;;;;;;14.88;9.25;;;;;;;10.43;100.00;93782.66;5066100;28;20045;-73
2023/10/04 00:06:32;;;;;;;13.32;8.40;;;;;;;10.45;99.74;93786.81;5068293;28;20086;-73
2023/10/04 00:08:59;;;;;;;14.57;8.70;;;;;;;10.44;99.90;93780.88;5064950;28;20055;-73
2023/10/04 00:11:27;;;;;;;16.10;8.85;;;;;;;10.36;100.00;93768.19;5069394;28;20078;-73
2023/10/04 00:13:55;;;;;;;14.35;8.73;;;;;;;10.31;99.75;93775.69;5065745;28;20128;-73
2023/10/04 00:16:22;;;;;;;14.98;8.98;;;;;;;10.28;99.88;93776.88;5068824;28;20504;-73
2023/10/04 00:18:49;;;;;;;14.65;9.05;;;;;;;10.29;99.32;93760.47;5069242;28;20078;-73
2023/10/04 00:21:16;;;;;;;13.18;8.07;;;;;;;10.22;99.85;93764.78;5064588;28;20106;-73
2023/10/04 00:23:43;;;;;;;12.70;8.50;;;;;;;10.25;100.00;93777.25;5067614;28;20044;-73
2023/10/04 00:26:10;;;;;;;15.35;9.05;;;;;;;10.18;99.88;93777.22;5065534;28;20045;-73
2023/10/04 00:28:39;;;;;;;14.07;8.63;;;;;;;10.15;99.81;93769.91;5064892;28;20044;-73
2023/10/04 00:31:06;;;;;;;14.48;9.10;;;;;;;10.24;100.00;93778.25;5067805;28;20048;-73
2023/10/04 00:33:35;;;;;;;14.20;8.77;;;;;;;9.94;100.00;93742.59;5068966;28;20074;-73
2023/10/04 00:36:03;;;;;;;15.27;9.18;;;;;;;10.09;100.00;93779.16;5064481;28;20052;-73
2023/10/04 00:38:31;;;;;;;13.85;8.50;;;;;;;10.02;100.00;93776.59;5064913;28;20213;-73
2023/10/04 00:40:58;;;;;;;15.52;9.73;;;;;;;10.02;100.00;93778.38;5068749;28;20040;-73
2023/10/04 00:43:24;;;;;;;13.43;9.00;;;;;;;9.94;100.00;93763.13;5064829;28;20389;-73
2023/10/04 00:45:53;;;;;;;14.85;9.45;;;;;;;9.94;100.00;93775.94;5068730;28;20079;-73
2023/10/04 00:48:23;;;;;;;14.27;8.52;;;;;;;9.96;100.00;93774.00;5068977;28;20060;-73
2023/10/04 00:50:51;;;;;;;15.00;8.95;;;;;;;9.95;100.00;93775.75;5062493;28;20507;-73
2023/10/04 00:53:23;;;;;;;12.90;8.75;;;;;;;9.94;100.00;93774.19;5065876;28;20053;-73
2023/10/04 00:55:53;;;;;;;12.10;9.13;;;;;;;9.95;100.00;93775.00;5062274;28;20161;-74
2023/10/04 00:58:20;;;;;;;15.30;9.25;;;;;;;9.88;100.00;93770.63;5068621;28;20044;-73
2023/10/04 01:00:48;;;;;;;13.32;8.32;;;;;;;9.88;100.00;93768.06;5062266;28;20056;-74
2023/10/04 01:03:20;;;;;;;12.77;8.30;;;;;;;9.90;100.00;93772.97;5068486;28;20110;-73
2023/10/04 01:05:47;;;;;;;15.70;8.82;;;;;;;9.95;100.00;93777.56;5062843;28;20478;-74
2023/10/04 01:08:15;;;;;;;12.77;9.05;;;;;;;9.83;100.00;93778.09;5068614;28;20049;-73
2023/10/04 01:10:44;;;;;;;13.55;8.82;;;;;;;9.77;100.00;93781.44;5063585;28;20132;-73
2023/10/04 01:13:15;;;;;;;13.75;8.75;;;;;;;9.73;100.00;93782.78;5068242;28;20056;-73
2023/10/04 01:15:42;;;;;;;13.18;9.32;;;;;;;9.74;100.00;93779.22;5062692;28;20758;-74
2023/10/04 01:18:11;;;;;;;14.10;9.18;;;;;;;9.72;100.00;93779.41;5066496;28;20828;-74
2023/10/04 01:20:39;;;;;;;15.45;8.63;;;;;;;9.78;100.00;93788.13;5067603;28;20048;-74
2023/10/04 01:23:10;;;;;;;13.80;8.77;;;;;;;9.72;100.00;93789.69;5068228;28;20044;-74
2023/10/04 01:25:39;;;;;;;16.48;9.02;;;;;;;9.69;100.00;93789.25;5062987;28;20044;-74
2023/10/04 01:28:12;;;;;;;14.63;9.35;;;;;;;9.66;100.00;93787.88;5066422;28;20110;-74
2023/10/04 01:30:40;;;;;;;14.38;8.27;;;;;;;9.59;100.00;93789.63;5067847;28;20951;-74
2023/10/04 01:33:10;;;;;;;16.27;8.13;;;;;;;9.56;100.00;93792.53;5062936;28;20094;-73
2023/10/04 01:35:37;;;;;;;14.73;8.27;;;;;;;9.49;100.00;93787.38;5062193;28;20127;-73
2023/10/04 01:38:06;;;;;;;13.73;8.63;;;;;;;9.48;100.00;93786.59;5067337;28;20117;-74
2023/10/04 01:40:35;;;;;;;13.38;8.70;;;;;;;9.51;100.00;93785.44;5067694;28;20076;-73
2023/10/04 01:43:09;;;;;;;17.48;9.40;;;;;;;9.54;100.00;93786.81;5066424;28;20052;-73
2023/10/04 01:45:36;;;;;;;12.95;8.88;;;;;;;9.56;100.00;93789.97;5063646;28;20131;-73
2023/10/04 01:48:05;;;;;;;14.30;8.88;;;;;;;9.42;100.00;93784.78;5048555;28;20053;-73
2023/10/04 01:50:31;;;;;;;16.52;10.10;;;;;;;9.41;100.00;93784.97;5066466;28;20048;-74
2023/10/04 01:52:58;;;;;;;12.07;8.50;;;;;;;9.45;100.00;93784.38;5065400;28;20501;-75
2023/10/04 01:55:26;;;;;;;13.63;8.82;;;;;;;9.41;100.00;93783.19;5065690;28;20053;-74
2023/10/04 01:57:54;;;;;;;16.77;8.57;;;;;;;9.35;100.00;93777.03;5065113;28;20049;-75
2023/10/04 02:00:23;;;;;;;13.95;8.68;;;;;;;9.29;100.00;93766.72;5060454;28;20049;-74
2023/10/04 02:02:51;;;;;;;14.68;9.10;;;;;;;9.30;100.00;93771.69;5065429;28;20753;-74
2023/10/04 02:05:26;;;;;;;14.48;9.18;;;;;;;9.38;99.79;93775.06;5067609;28;20055;-74
2023/10/04 02:07:53;;;;;;;12.98;9.20;;;;;;;9.25;100.00;93774.00;5063026;28;20044;-74
2023/10/04 02:10:21;;;;;;;15.93;9.15;;;;;;;9.23;100.00;93783.66;5067211;28;20048;-74
2023/10/04 02:12:50;;;;;;;14.60;9.88;;;;;;;9.22;100.00;93776.97;5067392;28;20048;-75
2023/10/04 02:15:18;;;;;;;12.82;9.18;;;;;;;9.16;100.00;93777.72;5064898;28;20056;-74
2023/10/04 02:17:46;;;;;;;17.27;9.57;;;;;;;9.16;100.00;93782.84;5065936;28;20060;-74
2023/10/04 02:20:21;;;;;;;15.82;9.30;;;;;;;9.06;100.00;93770.31;5061266;28;20047;-74
2023/10/04 02:22:48;;;;;;;14.45;8.95;;;;;;;9.17;100.00;93789.53;5066793;28;20052;-74
2023/10/04 02:25:17;;;;;;;14.18;9.50;;;;;;;9.15;100.00;93786.34;5067279;28;20052;-74
2023/10/04 02:27:44;;;;;;;13.75;8.52;;;;;;;9.02;100.00;93779.38;5064202;28;20820;-74
2023/10/04 02:30:15;;;;;;;15.60;9.52;;;;;;;8.94;100.00;93775.19;5062984;28;20055;-74
2023/10/04 02:32:44;;;;;;;14.38;9.35;;;;;;;8.98;100.00;93794.31;5065829;28;20045;-74
2023/10/04 02:35:20;;;;;;;13.98;8.60;;;;;;;8.99;100.00;93793.34;5058508;28;20045;-74
2023/10/04 02:37:48;;;;;;;12.73;8.98;;;;;;;8.98;100.00;93786.63;5062026;28;20044;-74
2023/10/04 02:40:17;;;;;;;14.57;8.82;;;;;;;8.98;100.00;93785.84;5066990;28;20083;-73
2023/10/04 02:42:45;;;;;;;14.70;9.60;;;;;;;8.96;100.00;93783.47;5066571;28;20052;-73
2023/10/04 02:45:18;;;;;;;16.08;9.23;;;;;;;8.96;100.00;93786.03;5064929;28;20493;-73
2023/10/04 02:47:49;;;;;;;15.02;9.18;;;;;;;8.99;100.00;93787.44;5059384;28;20048;-74
2023/10/04 02:50:17;;;;;;;14.98;9.15;;;;;;;8.94;100.00;93777.75;5066878;28;20496;-72
2023/10/04 02:52:45;;;;;;;12.43;8.88;;;;;;;9.00;100.00;93777.00;5066754;28;20056;-73
2023/10/04 02:55:17;;;;;;;17.48;9.30;;;;;;;8.96;100.00;93778.34;5060753;28;20918;-73
2023/10/04 02:57:45;;;;;;;15.07;9.90;;;;;;;9.04;100.00;93774.84;5063339;28;20519;-73
2023/10/04 03:00:17;;;;;;;16.58;10.52;;;;;;;9.04;100.00;93774.84;5061195;28;20416;-73
2023/10/04 03:02:45;;;;;;;16.73;9.95;;;;;;;8.94;100.00;93775.19;5061008;28;20154;-74
2023/10/04 03:05:15;;;;;;;15.02;10.02;;;;;;;8.97;100.00;93774.03;5061986;28;20076;-73
2023/10/04 03:07:43;;;;;;;15.30;9.57;;;;;;;8.74;100.00;93747.63;5063374;28;20140;-73
2023/10/04 03:10:11;;;;;;;17.70;9.63;;;;;;;8.92;100.00;93772.00;5062972;28;20583;-73
2023/10/04 03:12:41;;;;;;;16.23;9.75;;;;;;;8.92;100.00;93777.91;5059604;28;20512;-73
2023/10/04 03:15:10;;;;;;;14.98;9.38;;;;;;;8.90;100.00;93772.19;5064180;28;20412;-73
2023/10/04 03:17:37;;;;;;;16.25;9.63;;;;;;;8.71;100.00;93752.31;5066447;28;20451;-73
2023/10/04 03:20:11;;;;;;;18.23;9.68;;;;;;;8.81;100.00;93780.97;5066714;28;20131;-73
2023/10/04 03:22:42;;;;;;;19.70;11.02;;;;;;;8.71;100.00;93775.38;5064732;28;20450;-73
2023/10/04 03:25:14;;;;;;;16.85;10.07;;;;;;;8.70;100.00;93774.56;5064099;28;20853;-73
2023/10/04 03:27:43;;;;;;;16.17;9.75;;;;;;;8.69;100.00;93776.34;5068300;28;20059;-73
2023/10/04 03:30:14;;;;;;;18.60;10.30;;;;;;;8.61;100.00;93775.69;5063952;28;20127;-73
2023/10/04 03:32:41;;;;;;;19.35;11.57;;;;;;;8.55;100.00;93780.56;5063905;28;20768;-72
2023/10/04 03:35:14;;;;;;;21.33;11.80;;;;;;;8.52;100.00;93782.69;5070322;28;20052;-72
2023/10/04 03:37:49;;;;;;;24.73;12.45;;;;;;;8.47;100.00;93783.19;5065142;28;20045;-73
2023/10/04 03:40:17;;;;;;;20.42;12.50;;;;;;;8.46;100.00;93781.63;5064769;28;20160;-73
2023/10/04 03:42:46;;;;;;;19.75;12.13;;;;;;;8.44;100.00;93783.56;5069538;28;20044;-73
2023/10/04 03:45:17;;;;;;;19.50;11.07;;;;;;;8.36;100.00;93784.47;5064892;28;20065;-72
2023/10/04 03:47:44;;;;;;;18.90;11.60;;;;;;;8.38;100.00;93797.09;5067534;28;20387;-72
2023/10/04 03:50:13;;;;;;;19.33;11.18;;;;;;;8.37;100.00;93777.56;5061612;28;20474;-72
2023/10/04 03:52:40;;;;;;;17.10;11.02;;;;;;;8.44;100.00;93778.47;5064114;28;20066;-72
2023/10/04 03:55:13;;;;;;;18.35;10.98;;;;;;;8.26;100.00;93769.44;5069818;28;20048;-72
2023/10/04 03:57:42;;;;;;;17.60;10.52;;;;;;;8.35;100.00;93788.03;5062868;28;20517;-73
2023/10/04 04:00:12;;;;;;;20.30;11.32;;;;;;;8.37;100.00;93786.06;5069631;28;20081;-73
2023/10/04 04:02:40;;;;;;;18.75;11.55;;;;;;;8.20;100.00;93761.66;5065566;28;20123;-72
2023/10/04 04:05:09;;;;;;;18.35;11.35;;;;;;;8.24;100.00;93773.13;5063865;28;20098;-73
2023/10/04 04:07:36;;;;;;;18.25;11.27;;;;;;;8.32;100.00;93782.47;5066733;28;20094;-72
2023/10/04 04:10:04;;;;;;;18.63;12.05;;;;;;;8.22;100.00;93772.50;5069486;28;20051;-72
2023/10/04 04:12:34;;;;;;;22.38;13.07;;;;;;;8.34;100.00;93785.63;5069455;28;20047;-72
2023/10/04 04:15:03;;;;;;;18.27;10.93;;;;;;;8.35;100.00;93782.09;5064762;28;20057;-72
2023/10/04 04:17:30;;;;;;;20.75;11.70;;;;;;;8.34;100.00;93783.06;5068885;28;20067;-72
2023/10/04 04:19:57;;;;;;;17.90;11.55;;;;;;;8.28;100.00;93785.38;5065702;28;20539;-72
2023/10/04 04:22:26;;;;;;;18.58;11.18;;;;;;;8.27;100.00;93780.44;5066475;28;20052;-72
2023/10/04 04:24:53;;;;;;;20.33;10.77;;;;;;;8.30;100.00;93785.22;5061836;28;20052;-73
2023/10/04 04:27:22;;;;;;;21.45;11.23;;;;;;;8.34;100.00;93790.75;5068934;28;20492;-73
2023/10/04 04:29:53;;;;;;;22.65;12.98;;;;;;;8.28;100.00;93787.13;5065358;28;20566;-73
2023/10/04 04:32:26;;;;;;;22.52;12.07;;;;;;;8.24;100.00;93786.72;5066315;28;20095;-72
2023/10/04 04:34:53;;;;;;;27.02;13.30;;;;;;;8.22;100.00;93792.97;5065317;28;20048;-72
2023/10/04 04:37:23;;;;;;;22.05;12.93;;;;;;;8.21;100.00;93786.28;5066737;28;20052;-73
2023/10/04 04:39:51;;;;;;;20.13;11.70;;;;;;;8.15;100.00;93775.78;5067946;28;20164;-73
2023/10/04 04:42:29;;;;;;;22.58;12.48;;;;;;;8.14;100.00;93783.63;5067107;28;20126;-73
2023/10/04 04:44:59;;;;;;;19.35;11.55;;;;;;;8.09;100.00;93781.63;5065321;28;20088;-73
2023/10/04 04:47:26;;;;;;;24.30;12.55;;;;;;;8.08;100.00;93784.38;5064701;28;20575;-73
2023/10/04 04:49:55;;;;;;;24.00;13.23;;;;;;;8.08;100.00;93785.16;5061850;28;20053;-73
2023/10/04 04:52:21;;;;;;;18.30;12.27;;;;;;;8.08;100.00;93784.38;5066648;28;20052;-73
2023/10/04 04:54:48;;;;;;;25.27;13.00;;;;;;;8.12;100.00;93791.53;5068429;28;20058;-73
2023/10/04 04:57:15;;;;;;;24.05;13.93;;;;;;;8.09;100.00;93791.06;5080301;28;20056;-73
2023/10/04 04:59:43;;;;;;;30.33;13.75;;;;;;;8.14;100.00;93794.69;5070314;28;20078;-72
2023/10/04 05:02:11;;;;;;;24.58;13.63;;;;;;;8.21;100.00;93799.88;5070809;28;20048;-72
2023/10/04 05:04:38;;;;;;;23.75;13.40;;;;;;;8.19;100.00;93801.03;5070302;28;20501;-72
2023/10/04 05:07:06;;;;;;;24.70;12.93;;;;;;;8.15;100.00;93793.69;5073242;28;20098;-72
2023/10/04 05:09:34;;;;;;;25.50;13.65;;;;;;;8.27;100.00;93806.03;5070556;28;20044;-72
2023/10/04 05:12:01;;;;;;;27.27;13.60;;;;;;;8.18;100.00;93796.91;5063540;28;20053;-72
2023/10/04 05:14:27;;;;;;;25.45;13.10;;;;;;;8.33;100.00;93812.97;5067790;28;20045;-72
2023/10/04 05:16:54;;;;;;;33.47;13.40;;;;;;;8.41;100.00;93806.97;5076720;28;20504;-72
2023/10/04 05:19:23;;;;;;;23.75;12.50;;;;;;;8.36;100.00;93807.53;5068486;28;20056;-72
2023/10/04 05:21:50;;;;;;;33.13;14.35;;;;;;;8.39;100.00;93809.69;5068828;28;20048;-72
2023/10/04 05:24:17;;;;;;;27.90;13.40;;;;;;;8.37;100.00;93798.88;5063366;28;20049;-72
2023/10/04 05:26:44;;;;;;;23.20;12.85;;;;;;;8.39;100.00;93804.59;5075344;28;20045;-72
2023/10/04 05:29:12;;;;;;;24.98;13.20;;;;;;;8.52;100.00;93819.31;5064646;28;20048;-72
2023/10/04 05:31:40;;;;;;;25.98;14.82;;;;;;;8.59;100.00;93816.03;5069934;28;20131;-73
2023/10/04 05:34:07;;;;;;;25.90;14.98;;;;;;;8.37;100.00;93782.69;5068779;28;20409;-72
2023/10/04 05:36:39;;;;;;;28.33;14.00;;;;;;;8.62;100.00;93816.50;5068857;28;20044;-72
2023/10/04 05:39:07;;;;;;;30.02;15.23;;;;;;;8.64;100.00;93806.03;5068925;28;20086;-72
2023/10/04 05:41:35;;;;;;;35.78;18.58;;;;;;;8.74;100.00;93816.00;5080403;28;20424;-72
2023/10/04 05:44:03;;;;;;;26.30;16.73;;;;;;;8.80;100.00;93821.16;5086530;28;20044;-72
2023/10/04 05:46:30;;;;;;;33.30;17.60;;;;;;;8.82;100.00;93814.09;5083416;28;20419;-72
2023/10/04 05:48:56;;;;;;;30.35;17.42;;;;;;;8.92;100.00;93818.91;5069898;28;20055;-72
2023/10/04 05:51:24;;;;;;;35.30;17.80;;;;;;;9.02;100.00;93823.72;5085104;28;20048;-72
2023/10/04 05:53:53;;;;;;;29.30;16.13;;;;;;;9.11;100.00;93832.06;5066287;28;20450;-72
2023/10/04 05:56:21;;;;;;;28.92;17.90;;;;;;;9.20;100.00;93830.16;5060839;28;20049;-72
2023/10/04 05:58:48;;;;;;;25.77;16.38;;;;;;;9.29;100.00;93828.25;5072205;28;20063;-72
2023/10/04 06:01:17;;;;;;;23.20;15.77;;;;;;;9.45;100.00;93825.41;5072129;28;20045;-72
2023/10/04 06:03:44;;;;;;;24.90;15.02;;;;;;;9.61;100.00;93832.06;5064312;28;20059;-72
2023/10/04 06:06:11;;;;;;;24.33;14.50;;;;;;;9.68;100.00;93826.16;5063933;28;20040;-72
2023/10/04 06:08:38;;;;;;;24.77;14.20;;;;;;;9.72;100.00;93830.72;5065673;28;20085;-72
2023/10/04 06:11:06;;;;;;;20.98;14.20;;;;;;;9.75;100.00;93821.84;5075375;28;20527;-72
2023/10/04 06:13:34;;;;;;;22.95;14.25;;;;;;;9.85;100.00;93832.56;5067705;28;20048;-72
2023/10/04 06:16:02;;;;;;;24.65;15.07;;;;;;;9.87;100.00;93825.47;5067641;28;20059;-72
2023/10/04 06:18:29;;;;;;;27.45;14.93;;;;;;;10.01;100.00;93828.88;5065932;28;20060;-72
2023/10/04 06:20:56;;;;;;;30.52;17.38;;;;;;;10.06;100.00;93824.97;5071305;28;20518;-72
2023/10/04 06:23:25;;;;;;;32.85;16.98;;;;;;;10.18;100.00;93826.00;5072596;28;20052;-72
2023/10/04 06:25:52;;;;;;;27.83;15.57;;;;;;;10.30;100.00;93821.13;5067092;28;20078;-72
2023/10/04 06:28:20;;;;;;;30.70;16.65;;;;;;;10.44;100.00;93834.81;5067802;28;20052;-72
2023/10/04 06:30:49;;;;;;;30.13;16.35;;;;;;;10.29;100.00;93804.91;5063745;28;20093;-72
2023/10/04 06:33:17;;;;;;;31.73;16.50;;;;;;;10.45;100.00;93809.94;5075224;28;20888;-72
2023/10/04 06:35:44;;;;;;;32.15;17.02;;;;;;;10.71;100.00;93829.75;5065916;28;20052;-72
2023/10/04 06:38:12;;;;;;;37.08;17.77;;;;;;;10.89;100.00;93825.81;5069996;28;20174;-72
2023/10/04 06:40:39;;;;;;;33.75;16.92;;;;;;;11.04;100.00;93823.06;5085457;28;20055;-72
2023/10/04 06:43:08;;;;;;;35.47;18.52;;;;;;;11.26;100.00;93835.75;5067009;28;20067;-72
2023/10/04 06:45:37;;;;;;;35.42;18.88;;;;;;;11.36;100.00;93829.19;5064606;28;20606;-72
2023/10/04 06:48:05;;;;;;;37.15;20.05;;;;;;;11.62;100.00;93834.53;5066664;28;20052;-72
2023/10/04 06:50:35;;;;;;;34.03;18.02;;;;;;;11.73;100.00;93844.22;5064302;28;20497;-73
2023/10/04 06:53:04;;;;;;;37.75;19.45;;;;;;;11.87;100.00;93844.19;5070931;28;20076;-73
2023/10/04 06:55:32;;;;;;;40.25;19.30;;;;;;;12.01;100.00;93853.47;5068131;28;20048;-73
2023/10/04 06:58:00;;;;;;;30.90;16.27;;;;;;;12.07;100.00;93854.47;5068926;28;20057;-73
2023/10/04 07:00:30;;;;;;;33.20;17.40;;;;;;;12.15;100.00;93854.25;5074377;28;20101;-72
2023/10/04 07:02:59;;;;;;;30.75;16.55;;;;;;;12.22;100.00;93856.00;5076531;28;20044;-73
2023/10/04 07:05:29;;;;;;;30.40;15.93;;;;;;;12.30;100.00;93855.75;5072361;28;20053;-73
2023/10/04 07:07:57;;;;;;;30.35;15.48;;;;;;;12.40;100.00;93856.13;5071089;28;20523;-73
2023/10/04 07:10:26;;;;;;;31.73;15.15;;;;;;;12.54;100.00;93845.75;5068726;28;20080;-73
2023/10/04 07:12:54;;;;;;;34.42;15.00;;;;;;;12.77;100.00;93847.81;5070403;28;20496;-72
2023/10/04 07:15:24;;;;;;;26.23;13.68;;;;;;;13.03;99.18;93850.44;5067641;28;20531;-73
2023/10/04 07:17:52;;;;;;;27.23;12.98;;;;;;;13.25;98.29;93837.19;5067458;28;20045;-72
2023/10/04 07:20:20;;;;;;;19.73;12.77;;;;;;;13.36;96.19;93833.94;5067396;28;20040;-72
2023/10/04 07:22:50;;;;;;;23.70;12.57;;;;;;;13.61;94.68;93843.50;5067874;28;20052;-72
2023/10/04 07:25:18;;;;;;;27.45;13.43;;;;;;;13.81;94.01;93838.16;5071146;28;20052;-73
2023/10/04 07:27:46;;;;;;;26.27;13.10;;;;;;;14.01;93.08;93840.53;5070299;28;20051;-73
2023/10/04 07:30:14;;;;;;;24.77;12.98;;;;;;;14.00;94.28;93802.78;5065746;28;20052;-72
2023/10/04 07:32:42;;;;;;;24.42;13.60;;;;;;;14.53;91.17;93833.34;5063028;28;20052;-73
2023/10/04 07:35:12;;;;;;;22.70;12.13;;;;;;;14.73;92.00;93833.13;5079268;28;20047;-73
2023/10/04 07:37:40;;;;;;;26.67;12.57;;;;;;;15.03;90.24;93831.53;5070531;28;20143;-73
2023/10/04 07:40:10;;;;;;;25.67;11.65;;;;;;;15.17;87.55;93839.88;5078604;28;20052;-74
2023/10/04 07:42:38;;;;;;;21.73;12.88;;;;;;;15.15;86.64;93803.88;5089262;28;20052;-73
2023/10/04 07:45:05;;;;;;;24.00;11.57;;;;;;;15.57;86.12;93839.25;5077740;28;20052;-73
2023/10/04 07:47:32;;;;;;;23.70;11.25;;;;;;;15.70;85.81;93827.09;5070312;28;20048;-73
2023/10/04 07:49:58;;;;;;;24.63;12.57;;;;;;;15.98;83.72;93834.19;5070216;28;20048;-73
2023/10/04 07:52:25;;;;;;;23.25;11.73;;;;;;;16.06;83.62;93811.53;5072992;28;20052;-73
2023/10/04 07:54:54;;;;;;;25.75;12.20;;;;;;;16.41;81.86;93832.19;5069871;28;20090;-73
2023/10/04 07:57:21;;;;;;;25.52;10.20;;;;;;;16.64;80.74;93838.31;5060647;28;20567;-73
2023/10/04 07:59:49;;;;;;;22.05;10.93;;;;;;;16.78;78.86;93827.63;5088640;28;20054;-73
2023/10/04 08:02:17;;;;;;;19.17;11.02;;;;;;;16.83;78.58;93833.72;5072590;28;20539;-73
2023/10/04 08:04:45;;;;;;;24.70;10.18;;;;;;;17.10;77.40;93829.78;5068706;28;20120;-73
2023/10/04 08:07:14;;;;;;;22.75;9.85;;;;;;;17.29;76.31;93829.53;5065805;28;20141;-73
2023/10/04 08:09:41;;;;;;;16.30;9.32;;;;;;;17.43;75.98;93828.22;5088717;28;20048;-73
2023/10/04 08:12:09;;;;;;;32.38;11.10;;;;;;;17.76;77.99;93820.59;5074955;28;20055;-73
2023/10/04 08:14:36;;;;;;;18.73;8.30;;;;;;;18.01;75.50;93814.19;5078337;28;20056;-73
2023/10/04 08:17:04;;;;;;;19.85;8.98;;;;;;;18.32;71.09;93827.56;5068516;28;20059;-74
2023/10/04 08:19:31;;;;;;;20.42;8.73;;;;;;;18.37;70.23;93814.63;5067803;28;20421;-74
2023/10/04 08:21:58;;;;;;;17.98;9.63;;;;;;;18.69;72.60;93829.53;5069508;28;20048;-74
2023/10/04 08:24:25;;;;;;;15.77;8.32;;;;;;;18.89;68.41;93817.72;5070189;28;20079;-73
2023/10/04 08:26:52;;;;;;;24.75;9.35;;;;;;;19.01;69.96;93811.59;5071328;28;20047;-74
2023/10/04 08:29:21;;;;;;;20.20;8.88;;;;;;;19.19;68.19;93826.09;5070988;28;20067;-74
2023/10/04 08:31:48;;;;;;;21.70;8.75;;;;;;;19.48;67.60;93823.97;5067509;28;20093;-74
2023/10/04 08:34:18;;;;;;;18.50;8.93;;;;;;;19.66;67.12;93821.22;5066123;28;20052;-74
2023/10/04 08:36:45;;;;;;;18.00;8.45;;;;;;;19.84;64.87;93817.41;5080947;28;20048;-74
2023/10/04 08:39:13;;;;;;;17.65;9.02;;;;;;;19.94;65.32;93827.13;5063343;28;20052;-74
2023/10/04 08:41:40;;;;;;;20.80;9.35;;;;;;;20.25;64.31;93817.63;5072476;28;20048;-73
2023/10/04 08:44:07;;;;;;;14.20;7.05;;;;;;;20.24;61.80;93812.66;5075218;28;20052;-74
2023/10/04 08:46:37;;;;;;;17.45;7.55;;;;;;;20.31;59.25;93817.66;5071746;28;20049;-74
2023/10/04 08:49:09;;;;;;;15.38;7.25;;;;;;;20.34;60.98;93819.75;5066574;28;20040;-74
2023/10/04 08:51:46;;;;;;;20.63;7.18;;;;;;;20.63;62.89;93817.47;5069567;28;20058;-74
2023/10/04 08:54:16;;;;;;;13.02;6.43;;;;;;;20.40;58.54;93813.50;5067498;28;20048;-74
2023/10/04 08:56:52;;;;;;;13.57;6.50;;;;;;;20.46;57.40;93816.91;5075959;28;20421;-74
2023/10/04 08:59:20;;;;;;;;;;;;;;;20.39;59.73;93820.56;5073885;28;20516;-74
2023/10/04 09:01:50;;;;;;;15.77;6.13;;;;;;;20.64;58.97;93813.81;5069320;28;20296;-74
2023/10/04 09:04:20;;;;;;;15.02;6.40;;;;;;;20.96;57.44;93823.31;5068177;28;20045;-73
2023/10/04 09:06:48;;;;;;;13.80;5.70;;;;;;;21.17;54.58;93815.50;5071985;28;20572;-74
2023/10/04 09:09:15;;;;;;;12.63;6.05;;;;;;;21.02;55.08;93812.88;5082210;28;20044;-74
2023/10/04 09:11:42;;;;;;;14.57;5.72;;;;;;;21.10;55.57;93817.56;5070649;28;20420;-74
2023/10/04 09:14:09;;;;;;;13.45;5.85;;;;;;;21.09;53.39;93813.41;5084071;28;20058;-74
2023/10/04 09:16:36;;;;;;;10.45;5.20;;;;;;;21.21;52.38;93819.16;5075046;28;20052;-74
2023/10/04 09:19:08;;;;;;;11.35;5.53;;;;;;;21.04;50.50;93803.75;5071132;28;20080;-74
2023/10/04 09:21:38;;;;;;;11.95;5.55;;;;;;;20.99;49.97;93829.06;5068881;28;20091;-74
2023/10/04 09:24:10;;;;;;;16.15;6.10;;;;;;;21.25;51.89;93821.25;5069046;28;20059;-74
2023/10/04 09:26:38;;;;;;;13.93;5.82;;;;;;;21.55;52.39;93812.59;5066261;28;20066;-74
2023/10/04 09:29:06;;;;;;;12.57;6.03;;;;;;;21.67;49.95;93812.34;5070718;28;20051;-74
2023/10/04 09:31:50;;;;;;;13.70;6.38;;;;;;;22.01;50.09;93818.81;5081109;28;20131;-75
2023/10/04 09:34:18;;;;;;;10.00;5.90;;;;;;;22.01;48.80;93824.03;5074962;28;20124;-74
2023/10/04 09:36:45;;;;;;;10.95;6.05;;;;;;;22.27;50.40;93821.34;5074807;28;20549;-74
2023/10/04 09:39:13;;;;;;;14.02;5.95;;;;;;;22.46;48.33;93813.69;5068201;28;20056;-74
2023/10/04 09:41:42;;;;;;;13.55;5.72;;;;;;;22.42;47.40;93813.44;5068281;28;20047;-74
2023/10/04 09:44:20;;;;;;;13.18;6.15;;;;;;;22.66;48.94;93806.78;5069704;28;20113;-74
2023/10/04 09:46:50;;;;;;;9.25;5.68;;;;;;;22.60;46.13;93813.09;5070055;28;20075;-74
2023/10/04 09:49:18;;;;;;;10.82;5.35;;;;;;;22.81;47.19;93803.28;5071633;28;20052;-74
2023/10/04 09:51:46;;;;;;;12.93;5.68;;;;;;;22.89;46.34;93804.53;5070490;28;20053;-74
2023/10/04 09:54:16;;;;;;;12.45;5.20;;;;;;;23.12;46.04;93805.69;5069393;28;20074;-74
2023/10/04 09:56:44;;;;;;;10.88;5.82;;;;;;;23.00;45.27;93774.59;5069054;28;20585;-74
2023/10/04 09:59:14;;;;;;;14.15;6.40;;;;;;;23.41;47.85;93804.97;5069071;28;20061;-74
2023/10/04 10:01:41;;;;;;;10.40;5.60;;;;;;;23.27;45.15;93807.41;5072710;28;20055;-74
2023/10/04 10:04:18;;;;;;;13.65;6.13;;;;;;;23.54;47.84;93794.88;5072692;28;20052;-74
2023/10/04 10:06:55;;;;;;;11.80;5.50;;;;;;;23.76;45.06;93810.16;5073720;28;20176;-74
2023/10/04 10:09:24;;;;;;;8.48;4.85;;;;;;;23.58;43.67;93809.81;5069202;28;20044;-74
2023/10/04 10:11:53;;;;;;;13.27;5.85;;;;;;;23.70;45.23;93798.94;5068368;28;20456;-74
2023/10/04 10:14:22;;;;;;;13.38;6.40;;;;;;;23.73;45.80;93790.50;5061695;28;20041;-75
2023/10/04 10:16:54;;;;;;;11.50;5.00;;;;;;;23.62;43.72;93789.06;5069186;28;20059;-74
2023/10/04 10:19:26;;;;;;;7.80;4.50;;;;;;;23.43;45.16;93768.00;5069066;28;20353;-75
2023/10/04 10:22:11;;;;;;;17.83;6.20;;;;;;;23.72;44.57;93772.44;5068963;28;20051;-74
2023/10/04 10:24:50;;;;;;;10.68;5.45;;;;;;;23.98;45.67;93777.41;5070290;28;20055;-74
2023/10/04 10:27:20;;;;;;;8.77;4.50;;;;;;;23.51;44.39;93779.72;5069101;28;20056;-75
2023/10/04 10:29:48;;;;;;;10.77;5.13;;;;;;;23.58;44.79;93767.84;5069847;28;20056;-74
2023/10/04 10:32:20;;;;;;;10.25;5.30;;;;;;;23.15;45.44;93757.97;5069935;28;20561;-74
2023/10/04 10:34:49;;;;;;;11.68;4.70;;;;;;;23.58;46.48;93749.50;5074131;28;20079;-74
2023/10/04 10:37:19;;;;;;;11.50;5.55;;;;;;;24.03;46.78;93756.34;5061439;28;20051;-74
2023/10/04 10:39:47;;;;;;;14.60;4.95;;;;;;;24.32;44.69;93745.00;5067508;28;20518;-75
2023/10/04 10:42:14;;;;;;;8.02;4.25;;;;;;;24.25;43.01;93755.84;5065280;28;20051;-75
2023/10/04 10:44:42;;;;;;;14.00;4.50;;;;;;;24.35;42.97;93744.41;5068715;28;20055;-74
2023/10/04 10:47:22;;;;;;;11.60;4.65;;;;;;;24.36;41.22;93753.09;5067737;28;20059;-75
2023/10/04 10:49:55;;;;;;;13.18;4.70;;;;;;;24.62;43.44;93752.75;5073759;28;20044;-74
2023/10/04 10:52:39;;;;;;;10.77;4.90;;;;;;;24.91;42.88;93746.56;5069737;28;20105;-74
2023/10/04 10:55:14;;;;;;;10.52;5.22;;;;;;;25.22;43.28;93738.16;5068662;28;20171;-74
2023/10/04 10:57:43;;;;;;;12.40;4.78;;;;;;;25.49;43.14;93739.28;5070884;28;20074;-74
2023/10/04 11:00:19;;;;;;;11.30;5.50;;;;;;;25.56;40.34;93744.19;5071951;28;20126;-74
2023/10/04 11:02:47;;;;;;;12.70;6.07;;;;;;;25.55;40.29;93743.41;5069046;28;20052;-75
2023/10/04 11:05:16;;;;;;;10.48;4.18;;;;;;;25.65;39.27;93741.66;5072130;28;20044;-72
2023/10/04 11:07:47;;;;;;;9.00;4.20;;;;;;;25.48;39.85;93716.69;5068190;28;20083;-73
2023/10/04 11:10:16;;;;;;;13.18;4.75;;;;;;;25.60;39.88;93730.16;5069484;28;20048;-73
2023/10/04 11:12:44;;;;;;;10.68;4.22;;;;;;;25.73;40.27;93731.25;5074604;28;20133;-73
2023/10/04 11:15:11;;;;;;;7.70;3.70;;;;;;;25.51;38.58;93699.53;5072302;28;20049;-73
2023/10/04 11:17:39;;;;;;;8.55;4.22;;;;;;;25.29;39.24;93685.22;5067341;28;20048;-72
2023/10/04 11:20:09;;;;;;;11.00;4.53;;;;;;;25.55;38.77;93705.81;5062609;28;20068;-73
2023/10/04 11:22:37;;;;;;;9.05;4.07;;;;;;;25.00;38.73;93717.78;5068716;28;20135;-73
2023/10/04 11:25:08;;;;;;;8.20;3.60;;;;;;;24.76;40.36;93708.91;5069091;28;20044;-72
2023/10/04 11:27:36;;;;;;;10.10;4.25;;;;;;;25.03;40.69;93706.66;5074152;28;20048;-73
2023/10/04 11:30:04;;;;;;;7.95;4.05;;;;;;;25.28;41.10;93694.97;5084690;28;20048;-73